createdAt,value
2022-11-29T00:03:00.737Z,18.50
2022-11-29T00:06:24.031Z,18.23
2022-11-29T00:09:27.755Z,19.83
2022-11-29T00:12:30.515Z,20.27
2022-11-29T00:15:37.099Z,19.73
2022-11-29T00:18:39.996Z,19.20
2022-11-29T00:21:42.740Z,18.67
2022-11-29T00:24:45.668Z,18.67
2022-11-29T00:27:48.763Z,18.90
2022-11-29T00:30:53.115Z,18.17
2022-11-29T00:33:57.030Z,17.98
2022-11-29T00:37:00.023Z,20.00
2022-11-29T00:40:03.223Z,17.87
2022-11-29T00:43:06.173Z,18.37
2022-11-29T00:46:10.026Z,20.90
2022-11-29T00:49:15.727Z,19.30
2022-11-29T00:52:24.659Z,18.43
2022-11-29T00:55:27.395Z,19.37
2022-11-29T00:58:30.496Z,18.98
2022-11-29T01:01:33.317Z,18.48
2022-11-29T01:04:36.277Z,18.17
2022-11-29T01:07:39.295Z,18.20
2022-11-29T01:10:45.566Z,18.97
2022-11-29T01:13:49.450Z,18.05
2022-11-29T01:16:52.346Z,20.10
2022-11-29T01:19:55.209Z,19.75
2022-11-29T01:22:58.702Z,19.33
2022-11-29T01:26:04.939Z,19.77
2022-11-29T01:29:08.045Z,19.20
2022-11-29T01:32:12.681Z,18.02
2022-11-29T01:35:15.443Z,18.15
2022-11-29T01:38:18.706Z,17.80
2022-11-29T01:41:24.852Z,17.93
2022-11-29T01:44:29.511Z,18.60
2022-11-29T01:47:32.758Z,18.08
2022-11-29T01:50:35.578Z,17.52
2022-11-29T01:53:38.693Z,17.10
2022-11-29T01:56:43.869Z,18.50
2022-11-29T01:59:49.238Z,17.85
2022-11-29T02:02:58.177Z,17.83
2022-11-29T02:06:01.391Z,17.33
2022-11-29T02:09:23.095Z,17.80
2022-11-29T02:12:44.491Z,16.67
2022-11-29T02:16:01.660Z,17.15
2022-11-29T02:19:35.078Z,16.80
2022-11-29T02:22:50.429Z,16.60
2022-11-29T02:26:11.390Z,15.17
2022-11-29T02:30:00.951Z,16.20
2022-11-29T02:33:25.538Z,17.02
2022-11-29T02:36:43.589Z,16.27
2022-11-29T02:40:34.151Z,15.20
2022-11-29T02:44:12.499Z,16.77
2022-11-29T02:47:25.242Z,15.70
2022-11-29T02:50:37.162Z,15.57
2022-11-29T02:53:49.858Z,16.48
2022-11-29T02:56:56.146Z,15.65
2022-11-29T03:00:10.138Z,16.13
2022-11-29T03:03:24.172Z,16.00
2022-11-29T03:06:40.281Z,15.98
2022-11-29T03:09:56.771Z,14.20
2022-11-29T03:13:00.426Z,15.63
2022-11-29T03:16:34.015Z,15.13
2022-11-29T03:20:04.928Z,14.80
2022-11-29T03:23:07.616Z,16.50
2022-11-29T03:26:38.094Z,15.55
2022-11-29T03:29:48.464Z,16.23
2022-11-29T03:33:17.682Z,14.97
2022-11-29T03:36:57.834Z,14.00
2022-11-29T03:40:05.925Z,15.15
2022-11-29T03:43:21.784Z,14.52
2022-11-29T03:46:33.837Z,16.15
2022-11-29T03:49:53.011Z,14.17
2022-11-29T03:53:32.002Z,17.03
2022-11-29T03:56:36.167Z,15.07
2022-11-29T03:59:42.035Z,15.55
2022-11-29T04:02:54.149Z,15.13
2022-11-29T04:06:09.148Z,15.83
2022-11-29T04:09:36.127Z,14.70
2022-11-29T04:12:57.883Z,13.73
2022-11-29T04:16:18.819Z,14.50
2022-11-29T04:19:43.664Z,14.87
2022-11-29T04:22:52.287Z,13.97
2022-11-29T04:26:33.592Z,14.60
2022-11-29T04:30:14.623Z,14.65
2022-11-29T04:33:55.638Z,15.35
2022-11-29T04:37:04.471Z,13.80
2022-11-29T04:40:28.813Z,13.80
2022-11-29T04:44:13.711Z,14.50
2022-11-29T04:47:43.067Z,13.95
2022-11-29T04:51:28.799Z,14.70
2022-11-29T04:54:46.436Z,15.17
2022-11-29T04:58:40.614Z,13.70
2022-11-29T05:01:46.267Z,13.60
2022-11-29T05:04:53.583Z,14.80
2022-11-29T05:08:02.930Z,13.60
2022-11-29T05:11:17.522Z,14.00
2022-11-29T05:14:53.552Z,13.87
2022-11-29T05:18:03.873Z,13.52
2022-11-29T05:21:17.939Z,13.98
2022-11-29T05:24:30.879Z,13.95
2022-11-29T05:27:51.446Z,14.37
2022-11-29T05:31:13.891Z,14.57
2022-11-29T05:34:35.220Z,15.13
2022-11-29T05:38:03.595Z,16.30
2022-11-29T05:41:18.455Z,16.90
2022-11-29T05:44:45.201Z,13.40
2022-11-29T05:48:13.152Z,16.47
2022-11-29T05:51:23.143Z,14.65
2022-11-29T05:54:37.881Z,15.43
2022-11-29T05:58:10.455Z,16.85
2022-11-29T06:01:16.193Z,14.97
2022-11-29T06:04:29.068Z,13.20
2022-11-29T06:07:41.242Z,14.82
2022-11-29T06:11:18.638Z,13.48
2022-11-29T06:14:47.927Z,15.60
2022-11-29T06:18:12.145Z,13.87
2022-11-29T06:21:18.292Z,13.83
2022-11-29T06:24:39.990Z,14.80
2022-11-29T06:28:15.540Z,15.13
2022-11-29T06:31:29.093Z,16.92
2022-11-29T06:34:59.225Z,16.17
2022-11-29T06:38:12.850Z,14.70
2022-11-29T06:41:20.637Z,14.40
2022-11-29T06:44:23.791Z,13.90
2022-11-29T06:47:33.579Z,14.57
2022-11-29T06:51:02.270Z,14.17
2022-11-29T06:54:37.347Z,13.07
2022-11-29T06:58:07.936Z,13.40
2022-11-29T07:01:13.691Z,13.52
2022-11-29T07:04:30.428Z,14.25
2022-11-29T07:07:34.517Z,14.10
2022-11-29T07:10:39.897Z,15.27
2022-11-29T07:13:42.982Z,14.40
2022-11-29T07:17:10.280Z,13.85
2022-11-29T07:20:23.080Z,14.27
2022-11-29T07:23:54.702Z,14.00
2022-11-29T07:27:07.318Z,14.33
2022-11-29T07:30:14.419Z,13.30
2022-11-29T07:33:23.226Z,14.52
2022-11-29T07:36:45.438Z,13.70
2022-11-29T07:39:57.312Z,13.30
2022-11-29T07:43:29.557Z,13.77
2022-11-29T07:46:32.548Z,13.27
2022-11-29T07:49:35.420Z,14.85
2022-11-29T07:52:39.440Z,14.85
2022-11-29T07:55:43.056Z,15.90
2022-11-29T07:58:46.242Z,13.93
2022-11-29T08:01:49.234Z,14.90
2022-11-29T08:04:52.389Z,14.43
2022-11-29T08:07:56.268Z,15.30
2022-11-29T08:10:59.544Z,14.00
2022-11-29T08:14:04.432Z,12.63
2022-11-29T08:17:07.256Z,12.82
2022-11-29T08:20:12.418Z,11.57
2022-11-29T08:23:16.214Z,12.45
2022-11-29T08:26:21.011Z,12.30
2022-11-29T08:29:24.253Z,13.17
2022-11-29T08:32:27.803Z,13.40
2022-11-29T08:35:31.177Z,11.93
2022-11-29T08:38:34.486Z,12.82
2022-11-29T08:41:37.719Z,11.90
2022-11-29T08:44:41.060Z,12.57
2022-11-29T08:47:45.018Z,12.55
2022-11-29T08:50:50.677Z,13.88
2022-11-29T08:53:53.571Z,13.05
2022-11-29T09:00:23.800Z,15.13
2022-11-29T09:03:45.145Z,15.85
2022-11-29T09:06:49.993Z,13.13
2022-11-29T09:09:52.848Z,14.25
2022-11-29T09:12:55.842Z,14.10
2022-11-29T09:15:59.270Z,13.17
2022-11-29T09:19:02.624Z,13.93
2022-11-29T09:22:05.574Z,15.90
2022-11-29T09:25:08.769Z,14.73
2022-11-29T09:28:12.893Z,14.10
2022-11-29T09:31:16.611Z,15.10
2022-11-29T09:34:19.409Z,14.43
2022-11-29T09:37:22.203Z,15.80
2022-11-29T09:40:39.333Z,16.25
2022-11-29T09:44:10.075Z,16.00
2022-11-29T09:47:37.101Z,16.13
2022-11-29T09:50:54.717Z,17.42
2022-11-29T09:54:25.254Z,15.80
2022-11-29T09:57:29.253Z,16.15
2022-11-29T10:00:35.156Z,16.90
2022-11-29T10:03:47.101Z,14.97
2022-11-29T10:06:59.483Z,15.05
2022-11-29T10:10:32.730Z,15.10
2022-11-29T10:13:36.333Z,16.17
2022-11-29T10:16:51.095Z,17.60
2022-11-29T10:20:04.879Z,16.13
2022-11-29T10:23:13.729Z,16.05
2022-11-29T10:26:16.528Z,14.15
2022-11-29T10:29:19.870Z,16.33
2022-11-29T10:32:32.205Z,14.73
2022-11-29T10:35:35.017Z,15.23
2022-11-29T10:38:40.851Z,15.07
2022-11-29T10:41:43.670Z,15.95
2022-11-29T10:44:49.526Z,15.95
2022-11-29T10:47:58.646Z,15.93
2022-11-29T10:51:09.291Z,14.50
2022-11-29T10:54:37.582Z,14.68
2022-11-29T10:58:15.168Z,14.93
2022-11-29T11:01:18.912Z,13.60
2022-11-29T11:04:25.974Z,14.03
2022-11-29T11:07:35.870Z,13.57
2022-11-29T11:10:39.644Z,14.60
2022-11-29T11:13:42.502Z,14.68
2022-11-29T11:16:45.311Z,15.23
2022-11-29T11:20:14.491Z,13.93
2022-11-29T11:23:25.333Z,14.53
2022-11-29T11:26:44.028Z,13.82
2022-11-29T11:29:46.870Z,14.27
2022-11-29T11:33:09.533Z,14.35
2022-11-29T11:36:23.646Z,14.23
2022-11-29T11:39:28.158Z,13.60
2022-11-29T11:42:38.157Z,16.45
2022-11-29T11:45:40.858Z,19.65
2022-11-29T11:48:43.649Z,17.10
2022-11-29T11:51:46.510Z,22.67
2022-11-29T11:54:54.238Z,14.10
2022-11-29T11:58:07.818Z,27.37
2022-11-29T12:01:12.494Z,14.32
2022-11-29T12:04:19.699Z,12.43
2022-11-29T12:11:15.315Z,20.87
2022-11-29T12:14:37.403Z,14.25
2022-11-29T12:18:02.567Z,14.20
2022-11-29T12:21:15.380Z,12.48
2022-11-29T12:24:26.232Z,13.33
2022-11-29T12:27:30.308Z,13.03
2022-11-29T12:30:33.872Z,12.70
2022-11-29T12:33:46.820Z,13.00
2022-11-29T12:37:17.089Z,13.23
2022-11-29T12:40:45.124Z,16.43
2022-11-29T12:44:05.915Z,12.80
2022-11-29T12:47:35.325Z,17.15
2022-11-29T12:51:12.029Z,13.35
2022-11-29T12:54:40.334Z,14.85
2022-11-29T12:57:57.714Z,14.80
2022-11-29T13:01:16.375Z,14.03
2022-11-29T13:04:37.903Z,13.43
2022-11-29T13:07:44.009Z,12.95
2022-11-29T13:11:14.455Z,13.73
2022-11-29T13:14:55.712Z,13.33
2022-11-29T13:18:04.768Z,13.53
2022-11-29T13:21:16.425Z,12.68
2022-11-29T13:24:26.113Z,14.43
2022-11-29T13:27:35.063Z,14.25
2022-11-29T13:30:41.007Z,13.20
2022-11-29T13:33:53.810Z,13.67
2022-11-29T13:37:33.323Z,13.80
2022-11-29T13:41:05.385Z,13.98
2022-11-29T13:44:33.838Z,14.60
2022-11-29T13:47:49.392Z,15.17
2022-11-29T13:50:52.202Z,14.23
2022-11-29T13:53:56.314Z,14.23
2022-11-29T13:57:09.564Z,14.98
2022-11-29T14:00:29.085Z,16.00
2022-11-29T14:03:39.540Z,14.03
2022-11-29T14:06:48.849Z,14.67
2022-11-29T14:09:57.167Z,15.23
2022-11-29T14:13:04.653Z,15.70
2022-11-29T14:16:15.924Z,14.52
2022-11-29T14:19:32.858Z,14.70
2022-11-29T14:23:05.508Z,14.97
2022-11-29T14:26:08.251Z,15.88
2022-11-29T14:29:54.020Z,14.90
2022-11-29T14:33:19.113Z,14.23
2022-11-29T14:36:28.770Z,14.23
2022-11-29T14:39:44.558Z,15.30
2022-11-29T14:42:48.592Z,16.50
2022-11-29T14:46:14.726Z,16.40
2022-11-29T14:49:25.428Z,17.55
2022-11-29T14:52:32.169Z,17.50
2022-11-29T14:55:38.625Z,20.23
2022-11-29T14:58:41.461Z,19.25
2022-11-29T15:01:49.262Z,21.40
2022-11-29T15:04:55.148Z,21.08
2022-11-29T15:08:25.860Z,17.70
2022-11-29T15:11:52.232Z,17.80
2022-11-29T15:15:32.324Z,19.23
2022-11-29T15:19:13.469Z,17.23
2022-11-29T15:22:52.578Z,17.42
2022-11-29T15:26:00.500Z,16.37
2022-11-29T15:29:14.626Z,17.43
2022-11-29T15:32:26.187Z,18.98
2022-11-29T15:35:29.299Z,19.35
2022-11-29T15:38:43.323Z,19.65
2022-11-29T15:41:49.183Z,19.13
2022-11-29T15:44:53.425Z,19.77
2022-11-29T15:48:11.673Z,19.25
2022-11-29T15:51:32.235Z,21.45
2022-11-29T15:54:45.122Z,23.40
2022-11-29T15:57:51.038Z,25.57
2022-11-29T16:00:54.693Z,22.70
2022-11-29T16:03:58.643Z,21.10
2022-11-29T16:07:03.816Z,20.20
2022-11-29T16:10:16.396Z,20.25
2022-11-29T16:13:31.966Z,22.27
2022-11-29T16:16:35.788Z,22.43
2022-11-29T16:19:40.988Z,22.45
2022-11-29T16:22:46.371Z,32.13
2022-11-29T16:26:12.223Z,24.90
2022-11-29T16:29:31.599Z,21.23
2022-11-29T16:32:36.706Z,22.43
2022-11-29T16:35:39.812Z,21.67
2022-11-29T16:38:56.692Z,23.62
2022-11-29T16:42:20.537Z,22.83
2022-11-29T16:45:42.639Z,26.17
2022-11-29T16:48:46.083Z,23.60
2022-11-29T16:51:49.401Z,23.30
2022-11-29T16:54:52.531Z,22.92
2022-11-29T16:57:55.423Z,24.48
2022-11-29T17:00:58.336Z,23.67
2022-11-29T17:04:01.609Z,26.47
2022-11-29T17:07:07.121Z,27.55
2022-11-29T17:10:15.732Z,34.17
2022-11-29T17:13:19.535Z,38.47
2022-11-29T17:16:24.119Z,24.73
2022-11-29T17:19:29.435Z,36.77
2022-11-29T17:22:34.041Z,34.45
2022-11-29T17:25:41.211Z,37.92
2022-11-29T17:28:48.031Z,49.13
2022-11-29T17:31:54.027Z,48.43
2022-11-29T17:34:57.192Z,46.23
2022-11-29T17:38:00.547Z,46.67
2022-11-29T17:41:08.923Z,46.00
2022-11-29T17:44:12.466Z,45.12
2022-11-29T17:47:15.904Z,41.80
2022-11-29T17:50:19.365Z,43.57
2022-11-29T17:53:25.432Z,45.60
2022-11-29T17:56:30.475Z,52.03
2022-11-29T17:59:33.842Z,48.60
2022-11-29T18:02:37.022Z,50.67
2022-11-29T18:05:40.818Z,60.60
2022-11-29T18:08:45.967Z,55.75
2022-11-29T18:11:50.170Z,53.78
2022-11-29T18:14:53.886Z,64.35
2022-11-29T18:17:57.883Z,53.47
2022-11-29T18:21:02.788Z,57.97
2022-11-29T18:24:07.033Z,57.50
2022-11-29T18:27:10.317Z,70.78
2022-11-29T18:30:13.662Z,70.25
2022-11-29T18:33:16.893Z,59.93
2022-11-29T18:36:22.190Z,54.67
2022-11-29T18:39:25.684Z,53.40
2022-11-29T18:42:29.016Z,51.75
2022-11-29T18:45:35.666Z,52.40
2022-11-29T18:48:39.195Z,63.17
2022-11-29T18:51:46.496Z,60.20
2022-11-29T18:54:52.386Z,62.00
2022-11-29T18:57:55.843Z,60.72
2022-11-29T19:01:10.654Z,55.12
2022-11-29T19:04:16.290Z,51.33
2022-11-29T19:07:19.831Z,40.47
2022-11-29T19:10:22.945Z,41.03
2022-11-29T19:13:26.251Z,37.95
2022-11-29T19:16:32.797Z,31.62
2022-11-29T19:19:37.790Z,34.23
2022-11-29T19:22:41.501Z,34.33
2022-11-29T19:25:45.328Z,30.25
2022-11-29T19:28:49.306Z,29.70
2022-11-29T19:31:55.374Z,27.75
2022-11-29T19:34:59.132Z,28.17
2022-11-29T19:38:04.196Z,28.07
2022-11-29T19:41:11.981Z,33.05
2022-11-29T19:44:15.235Z,33.42
2022-11-29T19:47:18.486Z,30.17
2022-11-29T19:50:21.976Z,28.80
2022-11-29T19:53:25.111Z,26.50
2022-11-29T19:56:29.519Z,25.12
2022-11-29T19:59:36.025Z,23.65
2022-11-29T20:02:40.529Z,24.98
2022-11-29T20:05:53.762Z,27.50
2022-11-29T20:09:00.083Z,30.73
2022-11-29T20:12:03.701Z,35.72
2022-11-29T20:15:08.686Z,33.53
2022-11-29T20:18:12.955Z,28.08
2022-11-29T20:21:19.147Z,30.33
2022-11-29T20:24:25.409Z,31.87
2022-11-29T20:27:28.728Z,31.98
2022-11-29T20:30:32.424Z,29.70
2022-11-29T20:33:35.907Z,34.35
2022-11-29T20:37:00.960Z,38.43
2022-11-29T20:40:16.096Z,31.70
2022-11-29T20:43:29.745Z,36.75
2022-11-29T20:46:35.729Z,31.48
2022-11-29T20:49:39.241Z,30.62
2022-11-29T20:52:57.642Z,28.87
2022-11-29T20:56:01.221Z,31.90
2022-11-29T20:59:04.343Z,30.95
2022-11-29T21:02:07.647Z,29.35
2022-11-29T21:05:11.029Z,29.12
2022-11-29T21:08:15.377Z,28.83
2022-11-29T21:11:18.415Z,27.23
2022-11-29T21:14:21.653Z,27.08
2022-11-29T21:17:33.404Z,26.98
2022-11-29T21:20:36.747Z,27.25
2022-11-29T21:24:09.789Z,26.83
2022-11-29T21:27:25.720Z,26.63
2022-11-29T21:30:34.993Z,28.85
2022-11-29T21:33:37.881Z,25.55
2022-11-29T21:36:41.010Z,28.62
2022-11-29T21:39:44.002Z,26.97
2022-11-29T21:42:46.832Z,27.40
2022-11-29T21:45:49.720Z,29.02
2022-11-29T21:48:53.134Z,28.70
2022-11-29T21:52:01.245Z,30.12
2022-11-29T21:55:04.369Z,32.33
2022-11-29T21:58:07.180Z,27.43
2022-11-29T22:01:15.457Z,28.45
2022-11-29T22:04:18.768Z,25.83
2022-11-29T22:07:21.576Z,26.65
2022-11-29T22:10:28.270Z,27.13
2022-11-29T22:13:31.199Z,26.63
2022-11-29T22:16:34.219Z,22.95
2022-11-29T22:19:38.014Z,21.85
2022-11-29T22:22:40.763Z,21.85
2022-11-29T22:25:43.508Z,20.17
2022-11-29T22:28:46.206Z,19.97
2022-11-29T22:31:54.628Z,21.05
2022-11-29T22:34:57.323Z,20.88
2022-11-29T22:38:00.173Z,21.17
2022-11-29T22:41:05.489Z,20.77
2022-11-29T22:44:08.725Z,20.57
2022-11-29T22:47:11.426Z,20.60
2022-11-29T22:50:14.230Z,21.30
2022-11-29T22:53:23.249Z,21.50
2022-11-29T22:56:29.293Z,21.00
2022-11-29T22:59:32.149Z,21.43
2022-11-29T23:02:34.935Z,20.73
2022-11-29T23:05:37.742Z,20.27
2022-11-29T23:08:42.071Z,21.23
2022-11-29T23:11:45.841Z,21.77
2022-11-29T23:14:54.497Z,20.50
2022-11-29T23:18:02.538Z,22.05
2022-11-29T23:21:08.397Z,21.23
2022-11-29T23:24:11.340Z,21.17
2022-11-29T23:27:14.125Z,21.20
2022-11-29T23:30:16.872Z,20.57
2022-11-29T23:33:19.735Z,19.70
2022-11-29T23:36:22.590Z,21.23
2022-11-29T23:39:25.343Z,20.50
2022-11-29T23:42:28.061Z,22.53
2022-11-29T23:45:30.809Z,23.30
2022-11-29T23:48:33.638Z,23.23
2022-11-29T23:51:36.330Z,24.58
2022-11-29T23:54:38.964Z,23.80
2022-11-29T23:57:41.916Z,23.27
